sensor_id;sensor_type;location;lat;lon;timestamp;P1;durP1;ratioP1;P2;durP2;ratioP2
58294;SDS011;45705;55.592;37.460;2023-05-10T12:45:52;10.68;;;2.72;;
58294;SDS011;45705;55.592;37.460;2023-05-10T12:48:18;7.50;;;2.70;;
58294;SDS011;45705;55.592;37.460;2023-05-10T12:50:45;7.72;;;2.83;;
58294;SDS011;45705;55.592;37.460;2023-05-10T12:53:12;7.95;;;3.05;;
58294;SDS011;45705;55.592;37.460;2023-05-10T12:55:39;8.13;;;3.00;;
58294;SDS011;45705;55.592;37.460;2023-05-10T12:58:05;6.35;;;2.95;;
58294;SDS011;45705;55.592;37.460;2023-05-10T13:00:30;9.05;;;3.40;;
58294;SDS011;45705;55.592;37.460;2023-05-10T13:02:56;8.10;;;3.05;;
58294;SDS011;45705;55.592;37.460;2023-05-10T13:05:22;4.60;;;2.92;;
58294;SDS011;45705;55.592;37.460;2023-05-10T13:07:47;8.30;;;3.70;;
58294;SDS011;45705;55.592;37.460;2023-05-10T13:10:13;7.20;;;2.95;;
58294;SDS011;45705;55.592;37.460;2023-05-10T13:12:39;13.82;;;2.58;;
58294;SDS011;45705;55.592;37.460;2023-05-10T13:15:05;6.30;;;3.30;;
58294;SDS011;45705;55.592;37.460;2023-05-10T13:17:31;8.75;;;2.78;;
58294;SDS011;45705;55.592;37.460;2023-05-10T13:19:57;8.90;;;3.35;;
58294;SDS011;45705;55.592;37.460;2023-05-10T13:22:23;7.10;;;2.72;;
58294;SDS011;45705;55.592;37.460;2023-05-10T13:24:48;4.10;;;2.35;;
58294;SDS011;45705;55.592;37.460;2023-05-10T13:27:14;7.38;;;2.80;;
58294;SDS011;45705;55.592;37.460;2023-05-10T13:29:40;4.75;;;2.95;;
58294;SDS011;45705;55.592;37.460;2023-05-10T13:32:06;5.68;;;2.65;;
58294;SDS011;45705;55.592;37.460;2023-05-10T13:34:31;16.77;;;3.33;;
58294;SDS011;45705;55.592;37.460;2023-05-10T13:36:57;12.32;;;3.03;;
58294;SDS011;45705;55.592;37.460;2023-05-10T13:39:23;7.15;;;2.97;;
58294;SDS011;45705;55.592;37.460;2023-05-10T13:41:48;7.50;;;2.60;;
58294;SDS011;45705;55.592;37.460;2023-05-10T13:44:14;22.48;;;4.22;;
58294;SDS011;45705;55.592;37.460;2023-05-10T13:46:40;10.10;;;3.70;;
58294;SDS011;45705;55.592;37.460;2023-05-10T13:49:08;5.57;;;2.50;;
58294;SDS011;45705;55.592;37.460;2023-05-10T13:51:34;16.95;;;3.10;;
58294;SDS011;45705;55.592;37.460;2023-05-10T13:54:01;5.78;;;2.50;;
58294;SDS011;45705;55.592;37.460;2023-05-10T13:56:27;9.57;;;3.95;;
58294;SDS011;45705;55.592;37.460;2023-05-10T13:58:53;16.20;;;4.55;;
58294;SDS011;45705;55.592;37.460;2023-05-10T14:01:19;20.27;;;7.22;;
58294;SDS011;45705;55.592;37.460;2023-05-10T14:03:44;9.00;;;4.00;;
58294;SDS011;45705;55.592;37.460;2023-05-10T14:06:10;7.85;;;3.28;;
58294;SDS011;45705;55.592;37.460;2023-05-10T14:08:36;6.43;;;3.00;;
58294;SDS011;45705;55.592;37.460;2023-05-10T14:11:02;9.90;;;3.75;;
58294;SDS011;45705;55.592;37.460;2023-05-10T14:13:28;8.40;;;3.10;;
58294;SDS011;45705;55.592;37.460;2023-05-10T14:15:53;9.57;;;3.05;;
58294;SDS011;45705;55.592;37.460;2023-05-10T14:18:20;7.43;;;3.22;;
58294;SDS011;45705;55.592;37.460;2023-05-10T14:20:46;9.60;;;3.25;;
58294;SDS011;45705;55.592;37.460;2023-05-10T14:23:12;6.38;;;2.85;;
58294;SDS011;45705;55.592;37.460;2023-05-10T14:25:39;10.27;;;3.30;;
58294;SDS011;45705;55.592;37.460;2023-05-10T14:28:05;8.15;;;3.17;;
58294;SDS011;45705;55.592;37.460;2023-05-10T14:30:31;10.88;;;3.35;;
58294;SDS011;45705;55.592;37.460;2023-05-10T14:32:59;6.03;;;2.80;;
58294;SDS011;45705;55.592;37.460;2023-05-10T14:35:28;13.52;;;4.88;;
58294;SDS011;45705;55.592;37.460;2023-05-10T14:37:56;5.53;;;2.65;;
58294;SDS011;45705;55.592;37.460;2023-05-10T14:40:22;9.82;;;3.33;;
58294;SDS011;45705;55.592;37.460;2023-05-10T14:42:48;5.30;;;2.45;;
58294;SDS011;45705;55.592;37.460;2023-05-10T14:45:14;4.70;;;2.50;;
58294;SDS011;45705;55.592;37.460;2023-05-10T14:47:39;10.32;;;2.67;;
58294;SDS011;45705;55.592;37.460;2023-05-10T14:50:05;13.27;;;4.00;;
58294;SDS011;45705;55.592;37.460;2023-05-10T14:52:31;5.43;;;3.05;;
58294;SDS011;45705;55.592;37.460;2023-05-10T14:54:57;9.93;;;3.30;;
58294;SDS011;45705;55.592;37.460;2023-05-10T14:57:24;4.57;;;2.50;;
58294;SDS011;45705;55.592;37.460;2023-05-10T14:59:49;9.60;;;3.30;;
58294;SDS011;45705;55.592;37.460;2023-05-10T15:02:15;24.20;;;13.13;;
58294;SDS011;45705;55.592;37.460;2023-05-10T15:04:41;6.70;;;2.95;;
58294;SDS011;45705;55.592;37.460;2023-05-10T15:07:07;8.95;;;3.65;;
58294;SDS011;45705;55.592;37.460;2023-05-10T15:09:33;4.93;;;3.20;;
58294;SDS011;45705;55.592;37.460;2023-05-10T15:11:58;5.72;;;3.00;;
58294;SDS011;45705;55.592;37.460;2023-05-10T15:14:24;10.60;;;3.35;;
58294;SDS011;45705;55.592;37.460;2023-05-10T15:16:50;14.85;;;3.65;;
58294;SDS011;45705;55.592;37.460;2023-05-10T15:19:15;6.07;;;3.30;;
58294;SDS011;45705;55.592;37.460;2023-05-10T15:21:41;11.20;;;3.72;;
58294;SDS011;45705;55.592;37.460;2023-05-10T15:24:09;7.28;;;2.80;;
58294;SDS011;45705;55.592;37.460;2023-05-10T15:26:35;6.90;;;3.40;;
58294;SDS011;45705;55.592;37.460;2023-05-10T15:29:01;7.55;;;3.45;;
58294;SDS011;45705;55.592;37.460;2023-05-10T15:31:26;13.25;;;4.00;;
58294;SDS011;45705;55.592;37.460;2023-05-10T15:33:56;12.55;;;4.03;;
58294;SDS011;45705;55.592;37.460;2023-05-10T15:36:22;13.07;;;3.40;;
58294;SDS011;45705;55.592;37.460;2023-05-10T15:38:48;4.88;;;2.65;;
58294;SDS011;45705;55.592;37.460;2023-05-10T15:41:13;9.55;;;3.63;;
58294;SDS011;45705;55.592;37.460;2023-05-10T15:43:39;11.35;;;4.50;;
58294;SDS011;45705;55.592;37.460;2023-05-10T15:46:05;10.98;;;4.38;;
58294;SDS011;45705;55.592;37.460;2023-05-10T15:48:31;15.77;;;4.55;;
58294;SDS011;45705;55.592;37.460;2023-05-10T15:50:56;14.98;;;4.88;;
58294;SDS011;45705;55.592;37.460;2023-05-10T15:53:22;15.25;;;4.53;;
58294;SDS011;45705;55.592;37.460;2023-05-10T15:55:48;19.95;;;4.65;;
58294;SDS011;45705;55.592;37.460;2023-05-10T15:58:14;9.68;;;3.70;;
58294;SDS011;45705;55.592;37.460;2023-05-10T16:00:40;9.35;;;3.05;;
58294;SDS011;45705;55.592;37.460;2023-05-10T16:03:05;6.80;;;3.03;;
58294;SDS011;45705;55.592;37.460;2023-05-10T16:05:32;7.65;;;2.85;;
58294;SDS011;45705;55.592;37.460;2023-05-10T16:07:58;9.43;;;2.88;;
58294;SDS011;45705;55.592;37.460;2023-05-10T16:10:24;10.45;;;3.42;;
58294;SDS011;45705;55.592;37.460;2023-05-10T16:12:50;6.82;;;3.38;;
58294;SDS011;45705;55.592;37.460;2023-05-10T16:15:16;5.93;;;2.78;;
58294;SDS011;45705;55.592;37.460;2023-05-10T16:17:41;23.25;;;13.50;;
58294;SDS011;45705;55.592;37.460;2023-05-10T16:20:07;17.48;;;4.38;;
58294;SDS011;45705;55.592;37.460;2023-05-10T16:22:34;10.93;;;3.80;;
58294;SDS011;45705;55.592;37.460;2023-05-10T16:24:59;10.25;;;3.70;;
58294;SDS011;45705;55.592;37.460;2023-05-10T16:27:25;12.85;;;3.83;;
58294;SDS011;45705;55.592;37.460;2023-05-10T16:29:54;11.52;;;3.65;;
58294;SDS011;45705;55.592;37.460;2023-05-10T16:32:19;10.48;;;3.72;;
58294;SDS011;45705;55.592;37.460;2023-05-10T16:34:45;12.45;;;3.85;;
58294;SDS011;45705;55.592;37.460;2023-05-10T16:37:11;8.25;;;3.60;;
58294;SDS011;45705;55.592;37.460;2023-05-10T16:39:37;5.78;;;2.35;;
58294;SDS011;45705;55.592;37.460;2023-05-10T16:42:02;8.05;;;2.90;;
58294;SDS011;45705;55.592;37.460;2023-05-10T16:44:28;9.50;;;3.47;;
58294;SDS011;45705;55.592;37.460;2023-05-10T16:46:54;10.88;;;3.90;;
58294;SDS011;45705;55.592;37.460;2023-05-10T16:49:20;8.13;;;3.78;;
58294;SDS011;45705;55.592;37.460;2023-05-10T16:51:45;10.63;;;3.70;;
58294;SDS011;45705;55.592;37.460;2023-05-10T16:54:11;5.80;;;3.35;;
58294;SDS011;45705;55.592;37.460;2023-05-10T16:56:37;12.90;;;4.53;;
58294;SDS011;45705;55.592;37.460;2023-05-10T16:59:02;6.35;;;3.00;;
58294;SDS011;45705;55.592;37.460;2023-05-10T17:01:28;4.93;;;2.88;;
58294;SDS011;45705;55.592;37.460;2023-05-10T17:03:54;6.40;;;3.58;;
58294;SDS011;45705;55.592;37.460;2023-05-10T17:06:19;6.60;;;3.33;;
58294;SDS011;45705;55.592;37.460;2023-05-10T17:08:45;16.10;;;3.65;;
58294;SDS011;45705;55.592;37.460;2023-05-10T17:11:11;15.60;;;4.70;;
58294;SDS011;45705;55.592;37.460;2023-05-10T17:13:37;10.93;;;3.53;;
58294;SDS011;45705;55.592;37.460;2023-05-10T17:16:03;8.00;;;2.97;;
58294;SDS011;45705;55.592;37.460;2023-05-10T17:18:28;6.63;;;2.13;;
58294;SDS011;45705;55.592;37.460;2023-05-10T17:20:55;7.72;;;2.72;;
58294;SDS011;45705;55.592;37.460;2023-05-10T17:23:20;5.20;;;2.20;;
58294;SDS011;45705;55.592;37.460;2023-05-10T17:25:46;9.63;;;2.72;;
58294;SDS011;45705;55.592;37.460;2023-05-10T17:28:12;9.80;;;2.35;;
58294;SDS011;45705;55.592;37.460;2023-05-10T17:30:37;8.02;;;2.78;;
58294;SDS011;45705;55.592;37.460;2023-05-10T17:33:03;7.50;;;2.38;;
58294;SDS011;45705;55.592;37.460;2023-05-10T17:35:29;4.20;;;2.40;;
58294;SDS011;45705;55.592;37.460;2023-05-10T17:37:55;5.57;;;2.72;;
58294;SDS011;45705;55.592;37.460;2023-05-10T17:40:21;8.57;;;3.25;;
58294;SDS011;45705;55.592;37.460;2023-05-10T17:42:47;9.73;;;3.83;;
58294;SDS011;45705;55.592;37.460;2023-05-10T17:45:13;11.38;;;4.78;;
58294;SDS011;45705;55.592;37.460;2023-05-10T17:47:39;11.10;;;4.25;;
58294;SDS011;45705;55.592;37.460;2023-05-10T17:50:05;11.05;;;3.85;;
58294;SDS011;45705;55.592;37.460;2023-05-10T17:52:31;16.35;;;7.38;;
58294;SDS011;45705;55.592;37.460;2023-05-10T17:54:57;20.85;;;6.50;;
58294;SDS011;45705;55.592;37.460;2023-05-10T17:57:22;16.65;;;5.93;;
58294;SDS011;45705;55.592;37.460;2023-05-10T17:59:49;13.23;;;4.95;;
58294;SDS011;45705;55.592;37.460;2023-05-10T18:02:15;19.83;;;4.20;;
58294;SDS011;45705;55.592;37.460;2023-05-10T18:04:40;12.80;;;6.22;;
58294;SDS011;45705;55.592;37.460;2023-05-10T18:07:07;7.75;;;4.10;;
58294;SDS011;45705;55.592;37.460;2023-05-10T18:09:33;11.88;;;3.33;;
58294;SDS011;45705;55.592;37.460;2023-05-10T18:12:00;12.50;;;3.47;;
58294;SDS011;45705;55.592;37.460;2023-05-10T18:14:27;17.00;;;6.18;;
58294;SDS011;45705;55.592;37.460;2023-05-10T18:16:53;17.83;;;6.32;;
58294;SDS011;45705;55.592;37.460;2023-05-10T18:19:19;24.65;;;6.95;;
58294;SDS011;45705;55.592;37.460;2023-05-10T18:21:47;24.90;;;7.32;;
58294;SDS011;45705;55.592;37.460;2023-05-10T18:24:13;20.05;;;6.40;;
58294;SDS011;45705;55.592;37.460;2023-05-10T18:26:38;31.83;;;6.93;;
58294;SDS011;45705;55.592;37.460;2023-05-10T18:29:04;22.95;;;6.10;;
58294;SDS011;45705;55.592;37.460;2023-05-10T18:31:30;28.98;;;5.90;;
58294;SDS011;45705;55.592;37.460;2023-05-10T18:33:55;21.40;;;6.30;;
58294;SDS011;45705;55.592;37.460;2023-05-10T18:36:22;22.13;;;6.25;;
58294;SDS011;45705;55.592;37.460;2023-05-10T18:38:47;20.77;;;6.43;;
58294;SDS011;45705;55.592;37.460;2023-05-10T18:41:13;28.17;;;5.60;;
58294;SDS011;45705;55.592;37.460;2023-05-10T18:43:39;20.30;;;6.88;;
58294;SDS011;45705;55.592;37.460;2023-05-10T18:46:07;23.60;;;5.43;;
58294;SDS011;45705;55.592;37.460;2023-05-10T18:48:33;24.42;;;5.50;;
58294;SDS011;45705;55.592;37.460;2023-05-10T18:50:58;21.63;;;5.10;;
58294;SDS011;45705;55.592;37.460;2023-05-10T18:53:24;26.35;;;6.18;;
58294;SDS011;45705;55.592;37.460;2023-05-10T18:55:59;24.80;;;6.30;;
58294;SDS011;45705;55.592;37.460;2023-05-10T18:58:26;16.95;;;6.75;;
58294;SDS011;45705;55.592;37.460;2023-05-10T19:00:52;28.13;;;6.38;;
58294;SDS011;45705;55.592;37.460;2023-05-10T19:03:18;20.73;;;6.25;;
58294;SDS011;45705;55.592;37.460;2023-05-10T19:05:44;24.10;;;6.93;;
58294;SDS011;45705;55.592;37.460;2023-05-10T19:08:16;20.23;;;7.20;;
58294;SDS011;45705;55.592;37.460;2023-05-10T19:10:42;24.20;;;7.15;;
58294;SDS011;45705;55.592;37.460;2023-05-10T19:13:08;22.55;;;5.53;;
58294;SDS011;45705;55.592;37.460;2023-05-10T19:15:34;15.23;;;4.75;;
58294;SDS011;45705;55.592;37.460;2023-05-10T19:17:59;24.15;;;6.68;;
58294;SDS011;45705;55.592;37.460;2023-05-10T19:20:25;17.42;;;5.60;;
58294;SDS011;45705;55.592;37.460;2023-05-10T19:22:51;22.48;;;6.60;;
58294;SDS011;45705;55.592;37.460;2023-05-10T19:25:17;15.60;;;5.13;;
58294;SDS011;45705;55.592;37.460;2023-05-10T19:27:45;19.58;;;5.43;;
58294;SDS011;45705;55.592;37.460;2023-05-10T19:30:10;19.08;;;6.03;;
58294;SDS011;45705;55.592;37.460;2023-05-10T19:32:36;11.85;;;5.25;;
58294;SDS011;45705;55.592;37.460;2023-05-10T19:35:02;13.13;;;5.40;;
58294;SDS011;45705;55.592;37.460;2023-05-10T19:37:28;20.25;;;6.07;;
58294;SDS011;45705;55.592;37.460;2023-05-10T19:39:54;17.13;;;5.20;;
58294;SDS011;45705;55.592;37.460;2023-05-10T19:42:20;12.05;;;4.72;;
58294;SDS011;45705;55.592;37.460;2023-05-10T19:44:45;17.38;;;4.70;;
58294;SDS011;45705;55.592;37.460;2023-05-10T19:47:12;12.75;;;4.90;;
58294;SDS011;45705;55.592;37.460;2023-05-10T19:49:38;13.48;;;4.75;;
58294;SDS011;45705;55.592;37.460;2023-05-10T19:52:04;15.93;;;4.45;;
58294;SDS011;45705;55.592;37.460;2023-05-10T19:54:32;13.25;;;4.30;;
58294;SDS011;45705;55.592;37.460;2023-05-10T19:56:57;17.20;;;5.07;;
58294;SDS011;45705;55.592;37.460;2023-05-10T19:59:23;20.55;;;5.40;;
58294;SDS011;45705;55.592;37.460;2023-05-10T20:01:49;15.85;;;5.00;;
58294;SDS011;45705;55.592;37.460;2023-05-10T20:04:14;16.52;;;5.38;;
58294;SDS011;45705;55.592;37.460;2023-05-10T20:06:40;18.42;;;5.93;;
58294;SDS011;45705;55.592;37.460;2023-05-10T20:09:06;16.67;;;5.30;;
58294;SDS011;45705;55.592;37.460;2023-05-10T20:11:32;23.35;;;5.75;;
58294;SDS011;45705;55.592;37.460;2023-05-10T20:13:58;15.07;;;5.13;;
58294;SDS011;45705;55.592;37.460;2023-05-10T20:16:24;14.02;;;5.55;;
58294;SDS011;45705;55.592;37.460;2023-05-10T20:18:49;18.30;;;4.72;;
58294;SDS011;45705;55.592;37.460;2023-05-10T20:21:15;10.90;;;4.75;;
58294;SDS011;45705;55.592;37.460;2023-05-10T20:23:41;13.65;;;4.78;;
58294;SDS011;45705;55.592;37.460;2023-05-10T20:26:07;13.43;;;4.75;;
58294;SDS011;45705;55.592;37.460;2023-05-10T20:28:33;13.50;;;4.95;;
58294;SDS011;45705;55.592;37.460;2023-05-10T20:30:59;15.07;;;5.18;;
58294;SDS011;45705;55.592;37.460;2023-05-10T20:33:26;12.40;;;4.53;;
58294;SDS011;45705;55.592;37.460;2023-05-10T20:35:51;16.13;;;4.82;;
58294;SDS011;45705;55.592;37.460;2023-05-10T20:38:17;26.70;;;9.82;;
58294;SDS011;45705;55.592;37.460;2023-05-10T20:40:43;17.50;;;7.47;;
58294;SDS011;45705;55.592;37.460;2023-05-10T20:43:09;27.25;;;7.10;;
58294;SDS011;45705;55.592;37.460;2023-05-10T20:45:37;21.35;;;6.45;;
58294;SDS011;45705;55.592;37.460;2023-05-10T20:48:03;21.75;;;7.13;;
58294;SDS011;45705;55.592;37.460;2023-05-10T20:50:29;27.05;;;7.70;;
58294;SDS011;45705;55.592;37.460;2023-05-10T20:52:55;25.35;;;7.32;;
58294;SDS011;45705;55.592;37.460;2023-05-10T20:55:20;22.92;;;7.40;;
58294;SDS011;45705;55.592;37.460;2023-05-10T20:57:47;28.33;;;6.80;;
58294;SDS011;45705;55.592;37.460;2023-05-10T21:00:13;22.40;;;6.35;;
58294;SDS011;45705;55.592;37.460;2023-05-10T21:02:43;15.73;;;6.05;;
58294;SDS011;45705;55.592;37.460;2023-05-10T21:05:09;22.05;;;6.18;;
58294;SDS011;45705;55.592;37.460;2023-05-10T21:07:35;22.38;;;5.82;;
58294;SDS011;45705;55.592;37.460;2023-05-10T21:10:01;23.00;;;7.35;;
58294;SDS011;45705;55.592;37.460;2023-05-10T21:12:28;18.60;;;6.75;;
58294;SDS011;45705;55.592;37.460;2023-05-10T21:14:53;21.08;;;6.68;;
58294;SDS011;45705;55.592;37.460;2023-05-10T21:17:19;23.52;;;6.20;;
58294;SDS011;45705;55.592;37.460;2023-05-10T21:19:45;29.05;;;7.05;;
58294;SDS011;45705;55.592;37.460;2023-05-10T21:22:11;18.63;;;5.80;;
58294;SDS011;45705;55.592;37.460;2023-05-10T21:24:36;23.33;;;6.63;;
58294;SDS011;45705;55.592;37.460;2023-05-10T21:27:02;27.58;;;7.25;;
58294;SDS011;45705;55.592;37.460;2023-05-10T21:29:28;18.35;;;5.65;;
58294;SDS011;45705;55.592;37.460;2023-05-10T21:31:54;13.98;;;6.00;;
58294;SDS011;45705;55.592;37.460;2023-05-10T21:34:20;18.90;;;6.13;;
58294;SDS011;45705;55.592;37.460;2023-05-10T21:36:46;14.27;;;6.15;;
58294;SDS011;45705;55.592;37.460;2023-05-10T21:39:11;18.20;;;5.85;;
58294;SDS011;45705;55.592;37.460;2023-05-10T21:41:37;17.65;;;6.57;;
58294;SDS011;45705;55.592;37.460;2023-05-10T21:44:03;26.88;;;6.45;;
58294;SDS011;45705;55.592;37.460;2023-05-10T21:46:29;22.33;;;6.10;;
58294;SDS011;45705;55.592;37.460;2023-05-10T21:48:55;22.58;;;5.57;;
58294;SDS011;45705;55.592;37.460;2023-05-10T21:51:21;19.90;;;6.72;;
58294;SDS011;45705;55.592;37.460;2023-05-10T21:53:46;23.67;;;6.68;;
58294;SDS011;45705;55.592;37.460;2023-05-10T21:56:12;22.58;;;5.90;;
58294;SDS011;45705;55.592;37.460;2023-05-10T21:58:38;21.60;;;6.20;;
58294;SDS011;45705;55.592;37.460;2023-05-10T22:01:07;23.52;;;6.32;;
58294;SDS011;45705;55.592;37.460;2023-05-10T22:03:32;14.55;;;6.03;;
58294;SDS011;45705;55.592;37.460;2023-05-10T22:05:58;26.45;;;6.28;;
58294;SDS011;45705;55.592;37.460;2023-05-10T22:08:24;20.27;;;5.63;;
58294;SDS011;45705;55.592;37.460;2023-05-10T22:10:50;17.90;;;5.40;;
58294;SDS011;45705;55.592;37.460;2023-05-10T22:13:16;21.08;;;5.65;;
58294;SDS011;45705;55.592;37.460;2023-05-10T22:15:41;22.33;;;5.80;;
58294;SDS011;45705;55.592;37.460;2023-05-10T22:18:08;18.75;;;5.72;;
58294;SDS011;45705;55.592;37.460;2023-05-10T22:20:34;18.73;;;5.65;;
58294;SDS011;45705;55.592;37.460;2023-05-10T22:23:00;16.30;;;5.50;;
58294;SDS011;45705;55.592;37.460;2023-05-10T22:25:26;19.90;;;6.07;;
58294;SDS011;45705;55.592;37.460;2023-05-10T22:27:52;19.23;;;6.03;;
58294;SDS011;45705;55.592;37.460;2023-05-10T22:30:18;23.48;;;6.38;;
58294;SDS011;45705;55.592;37.460;2023-05-10T22:32:44;30.58;;;7.72;;
58294;SDS011;45705;55.592;37.460;2023-05-10T22:35:10;31.75;;;8.63;;
58294;SDS011;45705;55.592;37.460;2023-05-10T22:37:36;34.33;;;8.85;;
58294;SDS011;45705;55.592;37.460;2023-05-10T22:40:02;35.20;;;9.45;;
58294;SDS011;45705;55.592;37.460;2023-05-10T22:42:29;26.95;;;8.27;;
58294;SDS011;45705;55.592;37.460;2023-05-10T22:44:55;19.40;;;6.95;;
58294;SDS011;45705;55.592;37.460;2023-05-10T22:47:20;27.70;;;7.72;;
58294;SDS011;45705;55.592;37.460;2023-05-10T22:49:46;20.13;;;7.80;;
58294;SDS011;45705;55.592;37.460;2023-05-10T22:52:12;26.13;;;8.13;;
58294;SDS011;45705;55.592;37.460;2023-05-10T22:54:37;23.20;;;7.55;;
58294;SDS011;45705;55.592;37.460;2023-05-10T22:57:03;25.27;;;6.80;;
58294;SDS011;45705;55.592;37.460;2023-05-10T22:59:28;33.63;;;7.95;;
58294;SDS011;45705;55.592;37.460;2023-05-10T23:01:54;28.90;;;8.00;;
58294;SDS011;45705;55.592;37.460;2023-05-10T23:04:20;23.92;;;7.53;;
58294;SDS011;45705;55.592;37.460;2023-05-10T23:06:45;39.50;;;7.85;;
58294;SDS011;45705;55.592;37.460;2023-05-10T23:09:11;41.90;;;8.43;;
58294;SDS011;45705;55.592;37.460;2023-05-10T23:11:37;25.13;;;8.05;;
58294;SDS011;45705;55.592;37.460;2023-05-10T23:14:02;28.45;;;8.75;;
58294;SDS011;45705;55.592;37.460;2023-05-10T23:16:28;25.42;;;7.72;;
58294;SDS011;45705;55.592;37.460;2023-05-10T23:18:54;29.10;;;8.10;;
58294;SDS011;45705;55.592;37.460;2023-05-10T23:21:20;27.15;;;7.45;;
58294;SDS011;45705;55.592;37.460;2023-05-10T23:23:46;23.52;;;7.00;;
58294;SDS011;45705;55.592;37.460;2023-05-10T23:26:11;22.42;;;7.28;;
58294;SDS011;45705;55.592;37.460;2023-05-10T23:28:37;21.40;;;7.15;;
58294;SDS011;45705;55.592;37.460;2023-05-10T23:31:03;29.02;;;7.07;;
58294;SDS011;45705;55.592;37.460;2023-05-10T23:33:28;25.02;;;7.05;;
58294;SDS011;45705;55.592;37.460;2023-05-10T23:35:54;26.02;;;7.05;;
58294;SDS011;45705;55.592;37.460;2023-05-10T23:38:20;28.48;;;7.22;;
58294;SDS011;45705;55.592;37.460;2023-05-10T23:40:46;28.15;;;7.38;;
58294;SDS011;45705;55.592;37.460;2023-05-10T23:43:15;24.65;;;6.70;;
58294;SDS011;45705;55.592;37.460;2023-05-10T23:45:42;27.48;;;6.97;;
58294;SDS011;45705;55.592;37.460;2023-05-10T23:48:08;20.55;;;6.63;;
58294;SDS011;45705;55.592;37.460;2023-05-10T23:50:34;20.98;;;7.10;;
58294;SDS011;45705;55.592;37.460;2023-05-10T23:53:01;21.13;;;7.68;;
58294;SDS011;45705;55.592;37.460;2023-05-10T23:55:27;26.17;;;6.63;;
58294;SDS011;45705;55.592;37.460;2023-05-10T23:57:52;18.88;;;6.75;;
